createdAt,value
2022-11-16T00:00:12.306Z,10.88
2022-11-16T00:01:15.250Z,10.94
2022-11-16T00:02:18.544Z,10.88
2022-11-16T00:04:00.918Z,10.88
2022-11-16T00:05:03.782Z,10.94
2022-11-16T00:06:14.096Z,10.94
2022-11-16T00:07:49.395Z,10.94
2022-11-16T00:08:52.554Z,10.94
2022-11-16T00:09:55.602Z,10.94
2022-11-16T00:11:30.424Z,10.94
2022-11-16T00:12:33.348Z,10.94
2022-11-16T00:13:36.202Z,10.94
2022-11-16T00:15:11.164Z,10.94
2022-11-16T00:16:14.002Z,10.94
2022-11-16T00:17:16.868Z,10.94
2022-11-16T00:18:51.709Z,10.94
2022-11-16T00:19:54.668Z,10.94
2022-11-16T00:20:57.650Z,10.94
2022-11-16T00:22:32.532Z,10.94
2022-11-16T00:23:35.435Z,10.94
2022-11-16T00:24:38.722Z,10.94
2022-11-16T00:26:13.972Z,10.94
2022-11-16T00:27:16.857Z,10.94
2022-11-16T00:28:19.769Z,10.94
2022-11-16T00:29:55.004Z,10.94
2022-11-16T00:30:57.903Z,10.94
2022-11-16T00:32:00.910Z,10.94
2022-11-16T00:33:35.857Z,11.00
2022-11-16T00:34:38.760Z,11.00
2022-11-16T00:35:41.761Z,11.00
2022-11-16T00:37:16.568Z,11.00
2022-11-16T00:38:19.424Z,11.00
2022-11-16T00:39:23.137Z,11.00
2022-11-16T00:40:57.908Z,11.00
2022-11-16T00:42:00.986Z,11.00
2022-11-16T00:43:03.935Z,11.00
2022-11-16T00:44:38.743Z,11.00
2022-11-16T00:45:41.808Z,11.00
2022-11-16T00:46:44.712Z,11.00
2022-11-16T00:48:19.595Z,11.00
2022-11-16T00:49:23.059Z,11.00
2022-11-16T00:50:25.984Z,11.00
2022-11-16T00:52:00.704Z,11.00
2022-11-16T00:53:03.749Z,11.00
2022-11-16T00:54:06.722Z,11.00
2022-11-16T00:55:41.448Z,11.00
2022-11-16T00:56:44.412Z,11.00
2022-11-16T00:57:47.537Z,11.00
2022-11-16T00:59:22.773Z,11.00
2022-11-16T01:00:11.817Z,11.00
2022-11-16T01:01:15.078Z,11.00
2022-11-16T01:02:18.588Z,11.00
2022-11-16T01:03:53.413Z,11.00
2022-11-16T01:04:56.508Z,11.00
2022-11-16T01:05:59.484Z,11.00
2022-11-16T01:07:35.226Z,11.00
2022-11-16T01:08:38.073Z,11.06
2022-11-16T01:09:41.037Z,11.06
2022-11-16T01:11:16.213Z,11.06
2022-11-16T01:12:19.259Z,11.06
2022-11-16T01:13:22.352Z,11.00
2022-11-16T01:14:57.186Z,11.00
2022-11-16T01:16:00.310Z,11.00
2022-11-16T01:17:03.110Z,11.06
2022-11-16T01:18:38.140Z,11.13
2022-11-16T01:19:41.076Z,11.13
2022-11-16T01:20:43.983Z,11.13
2022-11-16T01:22:18.667Z,11.19
2022-11-16T01:23:21.760Z,11.13
2022-11-16T01:24:24.758Z,11.13
2022-11-16T01:25:59.762Z,11.13
2022-11-16T01:27:02.787Z,11.13
2022-11-16T01:28:05.808Z,11.19
2022-11-16T01:29:41.355Z,11.13
2022-11-16T01:30:44.269Z,11.19
2022-11-16T01:31:47.316Z,11.13
2022-11-16T01:33:22.243Z,11.13
2022-11-16T01:34:25.402Z,11.13
2022-11-16T01:35:28.205Z,11.13
2022-11-16T01:37:02.847Z,11.13
2022-11-16T01:38:05.662Z,11.13
2022-11-16T01:39:15.241Z,11.13
2022-11-16T01:40:49.812Z,11.13
2022-11-16T01:41:52.704Z,11.13
2022-11-16T01:42:55.483Z,11.13
2022-11-16T01:44:30.356Z,11.13
2022-11-16T01:45:33.679Z,11.13
2022-11-16T01:46:36.502Z,11.13
2022-11-16T01:48:11.459Z,11.13
2022-11-16T01:49:15.110Z,11.13
2022-11-16T01:50:17.906Z,11.13
2022-11-16T01:51:52.683Z,11.13
2022-11-16T01:52:55.421Z,11.13
2022-11-16T01:54:01.470Z,11.13
2022-11-16T01:55:36.511Z,11.13
2022-11-16T01:56:39.423Z,11.13
2022-11-16T01:57:42.560Z,11.13
2022-11-16T01:59:17.843Z,11.13
2022-11-16T02:00:12.316Z,11.13
2022-11-16T02:01:15.394Z,11.13
2022-11-16T02:02:18.874Z,11.13
2022-11-16T02:03:53.495Z,11.13
2022-11-16T02:04:56.401Z,11.13
2022-11-16T02:05:59.441Z,11.13
2022-11-16T02:07:34.617Z,11.13
2022-11-16T02:08:37.570Z,11.06
2022-11-16T02:09:40.600Z,11.06
2022-11-16T02:11:15.301Z,11.06
2022-11-16T02:12:17.942Z,11.06
2022-11-16T02:13:20.761Z,11.06
2022-11-16T02:14:58.154Z,11.06
2022-11-16T02:16:00.995Z,11.06
2022-11-16T02:17:03.983Z,11.06
2022-11-16T02:18:38.779Z,11.06
2022-11-16T02:19:41.643Z,11.06
2022-11-16T02:20:44.301Z,11.06
2022-11-16T02:22:19.129Z,11.06
2022-11-16T02:23:22.116Z,11.06
2022-11-16T02:24:25.110Z,11.06
2022-11-16T02:26:00.006Z,11.06
2022-11-16T02:27:02.960Z,11.06
2022-11-16T02:28:05.997Z,11.06
2022-11-16T02:29:41.419Z,11.06
2022-11-16T02:30:44.397Z,11.06
2022-11-16T02:31:47.163Z,11.06
2022-11-16T02:33:21.983Z,11.06
2022-11-16T02:34:24.746Z,11.00
2022-11-16T02:35:27.903Z,11.06
2022-11-16T02:37:02.647Z,11.00
2022-11-16T02:38:05.539Z,11.06
2022-11-16T02:39:09.070Z,11.06
2022-11-16T02:40:43.682Z,11.00
2022-11-16T02:41:46.830Z,11.00
2022-11-16T02:42:49.720Z,11.00
2022-11-16T02:44:24.641Z,11.00
2022-11-16T02:45:27.657Z,11.00
2022-11-16T02:46:30.376Z,11.00
2022-11-16T02:48:05.151Z,11.00
2022-11-16T02:49:08.531Z,11.00
2022-11-16T02:50:11.506Z,11.00
2022-11-16T02:51:46.464Z,11.00
2022-11-16T02:52:49.250Z,11.00
2022-11-16T02:53:51.863Z,11.00
2022-11-16T02:55:26.321Z,11.00
2022-11-16T02:56:29.068Z,11.00
2022-11-16T02:57:31.979Z,11.00
2022-11-16T02:59:07.249Z,11.00
2022-11-16T03:00:12.128Z,11.00
2022-11-16T03:01:15.082Z,11.00
2022-11-16T03:02:18.285Z,11.00
2022-11-16T03:03:53.095Z,11.00
2022-11-16T03:04:56.041Z,10.94
2022-11-16T03:05:58.981Z,11.00
2022-11-16T03:07:33.942Z,11.00
2022-11-16T03:08:36.854Z,11.00
2022-11-16T03:09:39.744Z,11.00
2022-11-16T03:11:14.632Z,10.94
2022-11-16T03:12:18.490Z,11.00
2022-11-16T03:13:21.351Z,10.94
2022-11-16T03:14:56.328Z,10.94
2022-11-16T03:15:59.496Z,10.94
2022-11-16T03:17:02.380Z,10.94
2022-11-16T03:18:37.217Z,10.94
2022-11-16T03:19:39.982Z,10.94
2022-11-16T03:20:42.799Z,10.94
2022-11-16T03:22:18.005Z,10.94
2022-11-16T03:23:20.683Z,10.94
2022-11-16T03:24:23.688Z,10.94
2022-11-16T03:25:58.723Z,10.94
2022-11-16T03:27:01.529Z,10.94
2022-11-16T03:28:04.546Z,10.94
2022-11-16T03:29:39.898Z,10.94
2022-11-16T03:30:42.765Z,10.94
2022-11-16T03:31:45.661Z,10.94
2022-11-16T03:33:20.468Z,10.94
2022-11-16T03:34:23.343Z,10.88
2022-11-16T03:35:26.374Z,10.94
2022-11-16T03:37:01.096Z,10.88
2022-11-16T03:38:03.869Z,10.88
2022-11-16T03:39:07.383Z,10.88
2022-11-16T03:40:42.222Z,10.88
2022-11-16T03:41:45.222Z,10.88
2022-11-16T03:42:47.985Z,10.88
2022-11-16T03:44:23.043Z,10.88
2022-11-16T03:45:25.831Z,10.88
2022-11-16T03:46:28.689Z,10.88
2022-11-16T03:48:03.533Z,10.88
2022-11-16T03:49:07.315Z,10.88
2022-11-16T03:50:10.272Z,10.88
2022-11-16T03:51:44.768Z,10.88
2022-11-16T03:52:47.603Z,10.88
2022-11-16T03:53:50.853Z,10.88
2022-11-16T03:55:25.519Z,10.88
2022-11-16T03:56:34.619Z,10.88
2022-11-16T03:57:37.358Z,10.88
2022-11-16T03:59:12.709Z,10.88
2022-11-16T04:00:12.651Z,10.88
2022-11-16T04:01:16.295Z,10.88
2022-11-16T04:02:25.289Z,10.88
2022-11-16T04:04:00.524Z,10.88
2022-11-16T04:05:03.436Z,10.88
2022-11-16T04:06:07.118Z,10.88
2022-11-16T04:07:42.309Z,10.88
2022-11-16T04:08:45.327Z,10.88
2022-11-16T04:09:48.226Z,10.88
2022-11-16T04:11:22.687Z,10.88
2022-11-16T04:12:25.937Z,10.88
2022-11-16T04:13:28.781Z,10.88
2022-11-16T04:15:03.360Z,10.88
2022-11-16T04:16:06.304Z,10.88
2022-11-16T04:17:09.424Z,10.88
2022-11-16T04:18:44.189Z,10.88
2022-11-16T04:19:47.010Z,10.88
2022-11-16T04:20:55.617Z,10.88
2022-11-16T04:22:30.315Z,10.88
2022-11-16T04:23:33.259Z,10.88
2022-11-16T04:24:36.152Z,10.88
2022-11-16T04:26:11.183Z,10.88
2022-11-16T04:27:13.927Z,10.88
2022-11-16T04:28:16.910Z,10.88
2022-11-16T04:29:52.233Z,10.88
2022-11-16T04:30:55.435Z,10.88
2022-11-16T04:31:58.337Z,10.88
2022-11-16T04:33:32.844Z,10.88
2022-11-16T04:34:35.878Z,10.88
2022-11-16T04:35:38.769Z,10.88
2022-11-16T04:37:13.374Z,10.88
2022-11-16T04:38:16.360Z,10.88
2022-11-16T04:39:19.714Z,10.88
2022-11-16T04:40:54.522Z,10.88
2022-11-16T04:41:57.250Z,10.88
2022-11-16T04:43:00.014Z,10.88
2022-11-16T04:44:34.712Z,10.94
2022-11-16T04:45:37.746Z,10.88
2022-11-16T04:46:40.682Z,10.88
2022-11-16T04:48:15.910Z,10.94
2022-11-16T04:49:19.372Z,10.94
2022-11-16T04:50:22.313Z,10.88
2022-11-16T04:51:57.037Z,10.94
2022-11-16T04:52:59.936Z,10.94
2022-11-16T04:54:02.841Z,10.94
2022-11-16T04:55:37.555Z,10.88
2022-11-16T04:56:46.547Z,10.94
2022-11-16T04:57:49.667Z,10.94
2022-11-16T04:59:24.534Z,10.94
2022-11-16T05:00:12.582Z,10.94
2022-11-16T05:01:15.668Z,10.94
2022-11-16T05:02:19.198Z,10.94
2022-11-16T05:03:54.130Z,10.94
2022-11-16T05:04:57.015Z,10.94
2022-11-16T05:05:41.527Z,10.94
2022-11-16T05:06:44.428Z,10.88
2022-11-16T05:07:47.895Z,10.88
2022-11-16T05:09:22.910Z,10.88
2022-11-16T05:10:25.899Z,10.88
2022-11-16T05:11:28.667Z,10.81
2022-11-16T05:13:03.802Z,10.81
2022-11-16T05:14:07.124Z,10.81
2022-11-16T05:15:09.999Z,10.81
2022-11-16T05:16:44.751Z,10.81
2022-11-16T05:17:47.803Z,10.81
2022-11-16T05:18:50.711Z,10.81
2022-11-16T05:20:25.928Z,10.75
2022-11-16T05:21:28.854Z,10.81
2022-11-16T05:22:31.755Z,10.75
2022-11-16T05:24:06.451Z,10.75
2022-11-16T05:25:09.249Z,10.75
2022-11-16T05:26:17.379Z,10.75
2022-11-16T05:27:52.411Z,10.75
2022-11-16T05:28:55.306Z,10.75
2022-11-16T05:29:58.244Z,10.75
2022-11-16T05:31:37.651Z,10.69
2022-11-16T05:32:43.365Z,10.75
2022-11-16T05:33:46.406Z,10.69
2022-11-16T05:35:21.339Z,10.69
2022-11-16T05:36:24.308Z,10.69
2022-11-16T05:37:27.277Z,10.69
2022-11-16T05:39:02.201Z,10.69
2022-11-16T05:40:05.156Z,10.69
2022-11-16T05:41:07.970Z,10.69
2022-11-16T05:42:42.918Z,10.69
2022-11-16T05:43:46.162Z,10.69
2022-11-16T05:44:49.305Z,10.69
2022-11-16T05:46:28.336Z,10.63
2022-11-16T05:47:31.398Z,10.63
2022-11-16T05:48:34.751Z,10.63
2022-11-16T05:50:10.062Z,10.63
2022-11-16T05:51:17.927Z,10.63
2022-11-16T05:52:21.027Z,10.63
2022-11-16T05:53:55.733Z,10.63
2022-11-16T05:54:58.561Z,10.56
2022-11-16T05:56:01.455Z,10.56
2022-11-16T05:57:36.982Z,10.50
2022-11-16T05:58:39.907Z,10.50
2022-11-16T05:59:50.043Z,10.50
2022-11-16T06:00:12.451Z,10.50
2022-11-16T06:01:15.284Z,10.50
2022-11-16T06:02:18.192Z,10.50
2022-11-16T06:03:53.500Z,10.50
2022-11-16T06:04:58.304Z,10.50
2022-11-16T06:06:01.559Z,10.44
2022-11-16T06:07:36.542Z,10.44
2022-11-16T06:08:39.526Z,10.44
2022-11-16T06:09:42.448Z,10.44
2022-11-16T06:11:17.318Z,10.44
2022-11-16T06:12:27.153Z,10.44
2022-11-16T06:13:30.178Z,10.44
2022-11-16T06:15:04.947Z,10.44
2022-11-16T06:16:07.982Z,10.44
2022-11-16T06:17:11.089Z,10.44
2022-11-16T06:18:45.773Z,10.44
2022-11-16T06:19:48.848Z,10.44
2022-11-16T06:20:51.690Z,10.44
2022-11-16T06:22:26.662Z,10.44
2022-11-16T06:23:29.397Z,10.44
2022-11-16T06:24:32.418Z,10.38
2022-11-16T06:26:07.398Z,10.38
2022-11-16T06:27:10.322Z,10.31
2022-11-16T06:28:13.265Z,10.31
2022-11-16T06:29:48.602Z,10.31
2022-11-16T06:30:51.380Z,10.31
2022-11-16T06:31:54.137Z,10.31
2022-11-16T06:33:33.386Z,10.31
2022-11-16T06:34:36.776Z,10.25
2022-11-16T06:35:39.895Z,10.25
2022-11-16T06:37:14.924Z,10.25
2022-11-16T06:38:17.675Z,10.25
2022-11-16T06:39:20.919Z,10.25
2022-11-16T06:40:55.384Z,10.25
2022-11-16T06:41:58.307Z,10.19
2022-11-16T06:43:01.272Z,10.19
2022-11-16T06:44:36.171Z,10.19
2022-11-16T06:45:39.210Z,10.19
2022-11-16T06:46:42.596Z,10.19
2022-11-16T06:48:17.433Z,10.19
2022-11-16T06:49:20.857Z,10.19
2022-11-16T06:50:23.657Z,10.19
2022-11-16T06:51:58.574Z,10.19
2022-11-16T06:53:01.518Z,10.13
2022-11-16T06:54:10.134Z,10.13
2022-11-16T06:55:44.819Z,10.13
2022-11-16T06:56:47.623Z,10.13
2022-11-16T06:57:51.584Z,10.13
2022-11-16T06:59:34.123Z,10.13
2022-11-16T07:00:11.704Z,10.13
2022-11-16T07:01:14.766Z,10.13
2022-11-16T07:02:18.681Z,10.06
2022-11-16T07:03:53.615Z,10.00
2022-11-16T07:05:02.116Z,10.00
2022-11-16T07:06:06.369Z,10.00
2022-11-16T07:07:41.679Z,9.94
2022-11-16T07:08:44.667Z,10.00
2022-11-16T07:09:47.637Z,9.94
2022-11-16T07:11:22.370Z,9.94
2022-11-16T07:12:25.172Z,9.94
2022-11-16T07:13:27.905Z,9.88
2022-11-16T07:15:02.777Z,9.88
2022-11-16T07:16:05.665Z,9.88
2022-11-16T07:17:09.792Z,9.88
2022-11-16T07:18:44.843Z,9.88
2022-11-16T07:19:47.563Z,9.88
2022-11-16T07:20:50.263Z,9.88
2022-11-16T07:22:25.264Z,9.81
2022-11-16T07:23:28.393Z,9.81
2022-11-16T07:24:31.423Z,9.81
2022-11-16T07:26:06.328Z,9.75
2022-11-16T07:27:09.191Z,9.81
2022-11-16T07:28:12.080Z,9.75
2022-11-16T07:29:54.674Z,9.75
2022-11-16T07:30:57.614Z,9.75
2022-11-16T07:32:00.607Z,9.75
2022-11-16T07:33:35.628Z,9.69
2022-11-16T07:34:38.563Z,9.69
2022-11-16T07:35:45.573Z,9.69
2022-11-16T07:37:20.476Z,9.69
2022-11-16T07:38:23.276Z,9.69
2022-11-16T07:39:26.798Z,9.63
2022-11-16T07:41:01.805Z,9.63
2022-11-16T07:42:04.590Z,9.63
2022-11-16T07:43:07.478Z,9.63
2022-11-16T07:44:46.944Z,9.56
2022-11-16T07:45:49.798Z,9.56
2022-11-16T07:47:34.770Z,9.50
2022-11-16T07:49:11.633Z,9.50
2022-11-16T07:50:14.840Z,9.44
2022-11-16T07:51:17.639Z,9.44
2022-11-16T07:52:52.457Z,9.44
2022-11-16T07:53:55.423Z,9.44
2022-11-16T07:54:58.572Z,9.44
2022-11-16T07:56:33.365Z,9.44
2022-11-16T07:57:36.365Z,9.44
2022-11-16T07:58:45.229Z,9.44
2022-11-16T08:00:12.449Z,9.44
2022-11-16T08:01:15.562Z,9.44
2022-11-16T08:02:18.917Z,9.44
2022-11-16T08:03:59.647Z,9.44
2022-11-16T08:05:02.774Z,9.44
2022-11-16T08:06:05.895Z,9.44
2022-11-16T08:07:40.958Z,9.44
2022-11-16T08:08:44.207Z,9.44
2022-11-16T08:09:55.323Z,9.44
2022-11-16T08:11:30.963Z,9.44
2022-11-16T08:12:33.968Z,9.44
2022-11-16T08:13:36.927Z,9.50
2022-11-16T08:15:11.700Z,9.50
2022-11-16T08:16:14.615Z,9.50
2022-11-16T08:17:17.523Z,9.50
2022-11-16T08:18:52.187Z,9.50
2022-11-16T08:19:55.200Z,9.50
2022-11-16T08:20:58.215Z,9.50
2022-11-16T08:22:33.411Z,9.50
2022-11-16T08:23:36.284Z,9.50
2022-11-16T08:24:44.831Z,9.50
2022-11-16T08:26:19.712Z,9.50
2022-11-16T08:27:22.514Z,9.50
2022-11-16T08:28:25.479Z,9.50
2022-11-16T08:30:00.860Z,9.50
2022-11-16T08:31:03.865Z,9.50
2022-11-16T08:32:07.046Z,9.50
2022-11-16T08:33:41.716Z,9.50
2022-11-16T08:34:44.647Z,9.50
2022-11-16T08:35:47.652Z,9.50
2022-11-16T08:37:29.016Z,9.56
2022-11-16T08:38:32.187Z,9.56
2022-11-16T08:39:35.530Z,9.56
2022-11-16T08:41:10.334Z,9.56
2022-11-16T08:42:13.475Z,9.63
2022-11-16T08:43:23.822Z,9.63
2022-11-16T08:44:59.539Z,9.63
2022-11-16T08:46:02.482Z,9.63
2022-11-16T08:47:05.623Z,9.69
2022-11-16T08:48:50.068Z,9.69
2022-11-16T08:49:53.077Z,9.69
2022-11-16T08:51:16.500Z,9.75
2022-11-16T08:52:52.815Z,9.75
2022-11-16T08:53:55.801Z,9.75
2022-11-16T08:54:58.619Z,9.75
2022-11-16T08:56:33.879Z,9.81
2022-11-16T08:57:36.840Z,9.81
2022-11-16T08:58:40.093Z,9.88
2022-11-16T09:00:12.338Z,9.81
2022-11-16T09:01:15.243Z,9.88
2022-11-16T09:02:18.913Z,9.88
2022-11-16T09:03:53.796Z,9.88
2022-11-16T09:04:56.600Z,9.88
2022-11-16T09:05:59.300Z,9.88
2022-11-16T09:07:35.087Z,9.94
2022-11-16T09:08:38.429Z,9.94
2022-11-16T09:09:41.330Z,9.94
2022-11-16T09:11:16.304Z,9.94
2022-11-16T09:12:19.193Z,9.94
2022-11-16T09:13:22.036Z,9.94
2022-11-16T09:14:57.160Z,10.00
2022-11-16T09:16:00.195Z,10.00
2022-11-16T09:17:03.039Z,10.00
2022-11-16T09:18:43.988Z,10.06
2022-11-16T09:19:47.307Z,10.06
2022-11-16T09:20:50.216Z,10.00
2022-11-16T09:22:25.231Z,10.00
2022-11-16T09:23:28.235Z,10.00
2022-11-16T09:24:31.009Z,10.00
2022-11-16T09:26:06.264Z,10.06
2022-11-16T09:27:09.062Z,10.00
2022-11-16T09:28:12.125Z,10.06
2022-11-16T09:29:47.334Z,10.06
2022-11-16T09:30:50.509Z,10.00
2022-11-16T09:31:58.461Z,10.00
2022-11-16T09:33:34.024Z,10.00
2022-11-16T09:34:37.206Z,10.00
2022-11-16T09:35:40.307Z,10.00
2022-11-16T09:37:14.931Z,10.00
2022-11-16T09:38:26.994Z,10.00
2022-11-16T09:40:26.540Z,10.00
2022-11-16T09:42:01.333Z,10.06
2022-11-16T09:43:04.291Z,10.06
2022-11-16T09:44:07.775Z,10.06
2022-11-16T09:45:42.619Z,10.06
2022-11-16T09:46:45.449Z,10.13
2022-11-16T09:47:48.368Z,10.13
2022-11-16T09:49:23.214Z,10.25
2022-11-16T09:50:26.128Z,10.25
2022-11-16T09:51:29.229Z,10.31
2022-11-16T09:53:04.046Z,10.31
2022-11-16T09:54:07.793Z,10.31
2022-11-16T09:55:15.899Z,10.31
2022-11-16T09:56:57.013Z,10.31
2022-11-16T09:58:06.595Z,10.31
2022-11-16T09:59:17.926Z,10.31
2022-11-16T10:00:11.717Z,10.38
2022-11-16T10:01:15.325Z,10.38
2022-11-16T10:02:18.914Z,10.38
2022-11-16T10:03:53.589Z,10.38
2022-11-16T10:04:58.480Z,10.44
2022-11-16T10:06:01.567Z,10.44
2022-11-16T10:07:36.629Z,10.44
2022-11-16T10:08:39.624Z,10.44
2022-11-16T10:09:42.569Z,10.44
2022-11-16T10:11:17.428Z,10.44
2022-11-16T10:12:20.460Z,10.44
2022-11-16T10:13:23.499Z,10.44
2022-11-16T10:14:58.749Z,10.38
2022-11-16T10:16:01.473Z,10.38
2022-11-16T10:17:04.424Z,10.31
2022-11-16T10:18:39.325Z,10.31
2022-11-16T10:19:42.199Z,10.31
2022-11-16T10:20:45.041Z,10.31
2022-11-16T10:22:19.779Z,10.25
2022-11-16T10:23:22.644Z,10.25
2022-11-16T10:24:25.943Z,10.25
2022-11-16T10:26:00.736Z,10.19
2022-11-16T10:27:03.559Z,10.19
2022-11-16T10:28:13.694Z,10.19
2022-11-16T10:29:48.548Z,10.19
2022-11-16T10:30:51.949Z,10.25
2022-11-16T10:31:54.847Z,10.31
2022-11-16T10:33:29.356Z,10.31
2022-11-16T10:34:32.955Z,10.31
2022-11-16T10:35:35.899Z,10.31
2022-11-16T10:37:10.852Z,10.31
2022-11-16T10:38:13.799Z,10.38
2022-11-16T10:39:16.832Z,10.38
2022-11-16T10:40:51.675Z,10.44
2022-11-16T10:41:54.573Z,10.50
2022-11-16T10:43:04.729Z,10.56
2022-11-16T10:44:40.549Z,10.56
2022-11-16T10:45:43.247Z,10.63
2022-11-16T10:46:46.475Z,10.63
2022-11-16T10:48:21.188Z,10.75
2022-11-16T10:49:24.093Z,10.81
2022-11-16T10:50:27.155Z,10.81
2022-11-16T10:52:01.758Z,10.81
2022-11-16T10:53:04.814Z,10.81
2022-11-16T10:54:08.070Z,10.81
2022-11-16T10:55:49.701Z,10.88
2022-11-16T10:56:52.578Z,10.88
2022-11-16T10:57:55.668Z,10.88
2022-11-16T10:59:30.377Z,10.88
2022-11-16T11:00:12.891Z,10.94
2022-11-16T11:01:20.332Z,10.94
2022-11-16T11:02:23.326Z,10.94
2022-11-16T11:03:58.392Z,11.00
2022-11-16T11:05:01.426Z,11.00
2022-11-16T11:06:04.570Z,11.06
2022-11-16T11:07:40.249Z,11.06
2022-11-16T11:08:50.033Z,11.06
2022-11-16T11:09:53.323Z,11.13
2022-11-16T11:11:27.898Z,11.19
2022-11-16T11:12:30.810Z,11.19
2022-11-16T11:13:34.096Z,11.19
2022-11-16T11:15:08.765Z,11.19
2022-11-16T11:16:17.713Z,11.19
2022-11-16T11:17:20.577Z,11.25
2022-11-16T11:18:55.326Z,11.25
2022-11-16T11:19:58.316Z,11.25
2022-11-16T11:21:01.275Z,11.25
2022-11-16T11:22:36.100Z,11.25
2022-11-16T11:23:39.068Z,11.25
2022-11-16T11:25:19.972Z,11.25
2022-11-16T11:26:54.717Z,11.19
2022-11-16T11:27:57.664Z,11.19
2022-11-16T11:29:00.519Z,11.13
2022-11-16T11:30:35.319Z,11.06
2022-11-16T11:31:38.038Z,11.06
2022-11-16T11:32:41.175Z,11.00
2022-11-16T11:34:16.460Z,11.00
2022-11-16T11:35:19.487Z,11.00
2022-11-16T11:36:22.451Z,10.94
2022-11-16T11:37:56.978Z,10.94
2022-11-16T11:39:05.826Z,10.94
2022-11-16T11:40:09.773Z,11.00
2022-11-16T11:41:44.779Z,11.00
2022-11-16T11:42:47.640Z,11.00
2022-11-16T11:43:55.417Z,11.06
2022-11-16T11:45:30.291Z,11.13
2022-11-16T11:47:06.456Z,11.13
2022-11-16T11:48:54.423Z,11.19
2022-11-16T11:50:29.297Z,11.25
2022-11-16T11:51:32.028Z,11.31
2022-11-16T11:52:34.816Z,11.31
2022-11-16T11:54:10.256Z,11.31
2022-11-16T11:55:20.368Z,11.31
2022-11-16T11:56:23.148Z,11.31
2022-11-16T11:57:57.803Z,11.31
2022-11-16T11:59:00.862Z,11.31
2022-11-16T12:00:12.310Z,11.31
2022-11-16T12:01:16.612Z,11.31
2022-11-16T12:02:23.079Z,11.25
2022-11-16T12:03:58.285Z,11.25
2022-11-16T12:05:01.211Z,11.19
2022-11-16T12:06:04.299Z,11.19
2022-11-16T12:07:39.660Z,11.19
2022-11-16T12:08:42.470Z,11.19
2022-11-16T12:09:45.390Z,11.19
2022-11-16T12:11:20.360Z,11.25
2022-11-16T12:12:23.089Z,11.25
2022-11-16T12:13:25.963Z,11.25
2022-11-16T12:15:01.551Z,11.31
2022-11-16T12:16:04.366Z,11.31
2022-11-16T12:17:07.317Z,11.31
2022-11-16T12:18:42.394Z,11.25
2022-11-16T12:19:45.594Z,11.19
2022-11-16T12:20:48.548Z,11.19
2022-11-16T12:22:23.275Z,11.19
2022-11-16T12:23:26.319Z,11.13
2022-11-16T12:24:29.820Z,11.13
2022-11-16T12:26:04.538Z,11.06
2022-11-16T12:27:07.640Z,11.06
2022-11-16T12:28:10.786Z,11.06
2022-11-16T12:29:45.496Z,11.13
2022-11-16T12:30:48.533Z,11.13
2022-11-16T12:31:51.481Z,11.13
2022-11-16T12:33:26.017Z,11.19
2022-11-16T12:34:29.702Z,11.19
2022-11-16T12:35:32.761Z,11.19
2022-11-16T12:37:07.509Z,11.25
2022-11-16T12:38:10.577Z,11.31
2022-11-16T12:39:18.054Z,11.31
2022-11-16T12:40:52.773Z,11.31
2022-11-16T12:41:55.609Z,11.31
2022-11-16T12:42:58.536Z,11.31
2022-11-16T12:44:33.263Z,11.38
2022-11-16T12:45:36.146Z,11.38
2022-11-16T12:46:39.083Z,11.38
2022-11-16T12:48:13.721Z,11.38
2022-11-16T12:49:16.360Z,11.38
2022-11-16T12:50:19.243Z,11.38
2022-11-16T12:51:54.189Z,11.38
2022-11-16T12:52:56.912Z,11.31
2022-11-16T12:53:59.689Z,11.31
2022-11-16T12:56:10.735Z,11.25
2022-11-16T12:57:13.592Z,11.25
2022-11-16T12:58:16.445Z,11.25
2022-11-16T12:59:51.131Z,11.25
2022-11-16T13:00:12.714Z,11.25
2022-11-16T13:01:15.594Z,11.25
2022-11-16T13:02:18.887Z,11.25
2022-11-16T13:03:53.970Z,11.19
2022-11-16T13:04:56.707Z,11.19
2022-11-16T13:05:59.552Z,11.19
2022-11-16T13:07:34.664Z,11.13
2022-11-16T13:08:37.765Z,11.13
2022-11-16T13:09:40.548Z,11.13
2022-11-16T13:11:15.205Z,11.13
2022-11-16T13:12:18.143Z,11.13
2022-11-16T13:13:37.208Z,11.06
2022-11-16T13:15:18.755Z,11.13
2022-11-16T13:16:21.665Z,11.13
2022-11-16T13:17:24.522Z,11.13
2022-11-16T13:18:59.182Z,11.13
2022-11-16T13:20:01.879Z,11.13
2022-11-16T13:21:11.571Z,11.13
2022-11-16T13:22:46.271Z,11.06
2022-11-16T13:23:49.248Z,11.06
2022-11-16T13:24:51.956Z,11.06
2022-11-16T13:26:26.731Z,11.06
2022-11-16T13:27:29.863Z,11.13
2022-11-16T13:28:33.768Z,11.13
2022-11-16T13:30:09.673Z,11.13
2022-11-16T13:31:12.763Z,11.13
2022-11-16T13:32:15.648Z,11.13
2022-11-16T13:33:51.064Z,11.13
2022-11-16T13:34:54.368Z,11.13
2022-11-16T13:35:57.253Z,11.13
2022-11-16T13:37:31.721Z,11.19
2022-11-16T13:38:34.905Z,11.13
2022-11-16T13:39:38.093Z,11.13
2022-11-16T13:41:12.739Z,11.13
2022-11-16T13:42:15.984Z,11.13
2022-11-16T13:43:18.806Z,11.13
2022-11-16T13:44:53.720Z,11.06
2022-11-16T13:45:56.717Z,11.06
2022-11-16T13:47:37.370Z,11.06
2022-11-16T13:49:13.319Z,11.00
2022-11-16T13:50:16.265Z,11.00
2022-11-16T13:51:23.707Z,11.00
2022-11-16T13:55:18.546Z,10.94
2022-11-16T13:56:24.185Z,10.94
2022-11-16T13:57:31.497Z,10.94
2022-11-16T13:59:06.095Z,10.94
2022-11-16T14:00:12.438Z,10.94
2022-11-16T14:01:15.440Z,10.94
2022-11-16T14:02:18.920Z,10.94
2022-11-16T14:03:53.531Z,10.94
2022-11-16T14:04:56.223Z,10.94
2022-11-16T14:05:59.175Z,10.94
2022-11-16T14:07:34.384Z,10.94
2022-11-16T14:08:37.249Z,10.94
2022-11-16T14:09:39.961Z,10.94
2022-11-16T14:11:14.874Z,10.94
2022-11-16T14:12:17.851Z,10.94
2022-11-16T14:13:20.697Z,10.94
2022-11-16T14:14:59.515Z,10.94
2022-11-16T14:16:06.135Z,10.94
2022-11-16T14:17:09.081Z,10.94
2022-11-16T14:18:43.686Z,10.94
2022-11-16T14:19:46.536Z,10.94
2022-11-16T14:20:56.953Z,10.94
2022-11-16T14:22:31.664Z,10.94
2022-11-16T14:23:34.789Z,10.94
2022-11-16T14:24:37.772Z,10.94
2022-11-16T14:26:12.713Z,10.94
2022-11-16T14:27:15.330Z,10.94
2022-11-16T14:28:22.603Z,10.94
2022-11-16T14:29:57.104Z,10.88
2022-11-16T14:31:00.184Z,10.88
2022-11-16T14:32:03.037Z,10.88
2022-11-16T14:33:38.023Z,10.88
2022-11-16T14:34:41.496Z,10.88
2022-11-16T14:35:44.187Z,10.88
2022-11-16T14:37:18.903Z,10.81
2022-11-16T14:38:21.724Z,10.81
2022-11-16T14:39:24.577Z,10.81
2022-11-16T14:41:00.129Z,10.75
2022-11-16T14:42:03.140Z,10.75
2022-11-16T14:43:17.841Z,10.75
2022-11-16T14:44:53.669Z,10.69
2022-11-16T14:45:56.439Z,10.69
2022-11-16T14:46:59.231Z,10.69
2022-11-16T14:48:34.123Z,10.69
2022-11-16T14:49:37.350Z,10.69
2022-11-16T14:50:41.132Z,10.69
2022-11-16T14:52:15.967Z,10.69
2022-11-16T14:53:18.911Z,10.69
2022-11-16T14:54:22.434Z,10.69
2022-11-16T14:55:57.392Z,10.69
2022-11-16T14:57:00.316Z,10.69
2022-11-16T14:58:03.363Z,10.69
2022-11-16T14:59:38.120Z,10.69
2022-11-16T15:00:11.993Z,10.69
2022-11-16T15:01:14.622Z,10.75
2022-11-16T15:02:17.619Z,10.75
2022-11-16T15:03:58.882Z,10.69
2022-11-16T15:05:01.879Z,10.75
2022-11-16T15:06:04.693Z,10.75
2022-11-16T15:07:40.268Z,10.75
2022-11-16T15:08:43.173Z,10.75
2022-11-16T15:09:46.031Z,10.75
2022-11-16T15:11:27.160Z,10.75
2022-11-16T15:12:29.828Z,10.75
2022-11-16T15:13:33.130Z,10.75
2022-11-16T15:15:08.199Z,10.75
2022-11-16T15:16:11.324Z,10.75
2022-11-16T15:17:14.201Z,10.75
2022-11-16T15:18:56.654Z,10.75
2022-11-16T15:19:59.575Z,10.75
2022-11-16T15:21:02.433Z,10.75
2022-11-16T15:22:37.078Z,10.75
2022-11-16T15:23:39.898Z,10.75
2022-11-16T15:25:22.733Z,10.75
2022-11-16T15:26:57.362Z,10.75
2022-11-16T15:28:00.351Z,10.75
2022-11-16T15:29:03.136Z,10.75
2022-11-16T15:30:37.849Z,10.75
2022-11-16T15:31:40.653Z,10.75
2022-11-16T15:32:43.234Z,10.75
2022-11-16T15:34:18.909Z,10.75
2022-11-16T15:35:21.715Z,10.75
2022-11-16T15:36:24.439Z,10.75
2022-11-16T15:37:59.421Z,10.75
2022-11-16T15:39:02.186Z,10.75
2022-11-16T15:40:05.336Z,10.75
2022-11-16T15:41:40.168Z,10.75
2022-11-16T15:42:49.852Z,10.75
2022-11-16T15:44:12.323Z,10.75
2022-11-16T15:45:56.311Z,10.69
2022-11-16T15:46:59.164Z,10.69
2022-11-16T15:48:02.057Z,10.69
2022-11-16T15:49:36.822Z,10.69
2022-11-16T15:50:39.777Z,10.63
2022-11-16T15:51:50.221Z,10.63
2022-11-16T15:53:25.289Z,10.63
2022-11-16T15:54:28.521Z,10.63
2022-11-16T15:55:31.461Z,10.56
2022-11-16T15:57:07.321Z,10.56
2022-11-16T15:58:10.515Z,10.56
2022-11-16T15:59:13.741Z,10.56